Time;durP1;ratioP1;P1;durP2;ratioP2;P2;SDS_P1;SDS_P2;PMS_P1;PMS_P2;Temp;Humidity;BMP_temperature;BMP_pressure;BME280_temperature;BME280_humidity;BME280_pressure;Samples;Min_cycle;Max_cycle;Signal;HPM_P1;HPM_P2
2023/08/16 00:01:57;;;;;;;0.10;0.10;;;;;;;22.33;100.00;100214.09;5084182;28;20484;-60
2023/08/16 00:04:23;;;;;;;0.10;0.10;;;;;;;22.29;100.00;100218.00;5065752;28;20096;-60
2023/08/16 00:06:49;;;;;;;0.10;0.10;;;;;;;22.24;100.00;100212.06;5068392;28;20529;-59
2023/08/16 00:09:16;;;;;;;0.10;0.10;;;;;;;22.25;100.00;100210.25;5071785;28;20046;-59
2023/08/16 00:11:41;;;;;;;0.10;0.10;;;;;;;22.24;100.00;100213.94;5089003;28;20067;-60
2023/08/16 00:14:06;;;;;;;0.10;0.10;;;;;;;22.21;100.00;100198.75;5075257;28;20028;-60
2023/08/16 00:16:32;;;;;;;0.10;0.10;;;;;;;22.18;100.00;100199.00;5076674;28;20466;-60
2023/08/16 00:18:58;;;;;;;0.10;0.10;;;;;;;22.17;100.00;100189.16;5084613;28;20028;-60
2023/08/16 00:21:24;;;;;;;0.10;0.10;;;;;;;22.19;100.00;100189.88;5088837;28;20325;-60
2023/08/16 00:23:49;;;;;;;0.10;0.10;;;;;;;22.16;100.00;100200.97;5088863;28;20027;-59
2023/08/16 00:26:15;;;;;;;0.10;0.10;;;;;;;22.13;100.00;100191.25;5088774;28;20036;-60
2023/08/16 00:28:41;;;;;;;0.10;0.10;;;;;;;22.10;100.00;100186.06;5080214;28;20032;-59
2023/08/16 00:31:08;;;;;;;0.10;0.10;;;;;;;22.09;100.00;100178.91;5068621;28;20103;-59
2023/08/16 00:33:33;;;;;;;0.10;0.10;;;;;;;22.12;100.00;100184.06;5075299;28;20035;-60
2023/08/16 00:35:58;;;;;;;0.10;0.10;;;;;;;21.95;100.00;100156.56;5088656;28;20035;-59
2023/08/16 00:38:24;;;;;;;0.10;0.10;;;;;;;22.08;100.00;100179.03;5075854;28;20024;-60
2023/08/16 00:40:50;;;;;;;0.10;0.10;;;;;;;22.06;100.00;100172.84;5067944;28;20028;-60
2023/08/16 00:43:18;;;;;;;0.10;0.10;;;;;;;22.05;100.00;100184.69;5073731;28;20021;-59
2023/08/16 00:45:48;;;;;;;0.10;0.10;;;;;;;22.06;100.00;100183.69;5075481;28;20107;-60
2023/08/16 00:48:13;;;;;;;0.10;0.10;;;;;;;22.05;100.00;100181.97;5086657;28;20103;-60
2023/08/16 00:50:39;;;;;;;0.10;0.10;;;;;;;22.08;100.00;100181.72;5084449;28;20032;-60
2023/08/16 00:53:05;;;;;;;0.10;0.10;;;;;;;22.07;100.00;100180.00;5087391;28;20023;-60
2023/08/16 00:55:32;;;;;;;0.10;0.10;;;;;;;22.09;100.00;100172.63;5077610;28;20414;-60
2023/08/16 00:57:57;;;;;;;0.10;0.10;;;;;;;22.11;100.00;100170.66;5066926;28;20040;-60
2023/08/16 01:00:38;;;;;;;0.10;0.10;;;;;;;22.14;100.00;100171.28;5067173;28;20028;-60
2023/08/16 01:03:04;;;;;;;0.10;0.10;;;;;;;22.16;100.00;100168.44;5068245;28;20028;-60
2023/08/16 01:05:32;;;;;;;0.10;0.10;;;;;;;22.16;100.00;100158.47;5070809;28;20085;-60
2023/08/16 01:07:57;;;;;;;0.10;0.10;;;;;;;22.18;100.00;100161.06;5068082;28;20448;-60
2023/08/16 01:10:32;;;;;;;0.10;0.10;;;;;;;22.20;100.00;100153.69;5067659;28;20076;-60
2023/08/16 01:13:08;;;;;;;0.20;0.20;;;;;;;22.22;100.00;100148.16;5084903;28;20040;-60
2023/08/16 01:15:38;;;;;;;0.20;0.20;;;;;;;22.23;100.00;100147.16;5088290;28;20128;-60
2023/08/16 01:18:05;;;;;;;0.20;0.20;;;;;;;22.24;100.00;100154.31;5074238;28;20039;-60
2023/08/16 01:20:32;;;;;;;0.10;0.10;;;;;;;22.25;100.00;100159.63;5080891;28;20042;-60
2023/08/16 01:23:00;;;;;;;0.10;0.10;;;;;;;22.24;100.00;100157.88;5082996;28;20027;-60
2023/08/16 01:25:46;;;;;;;0.10;0.10;;;;;;;22.24;100.00;100166.00;5082215;28;20035;-60
2023/08/16 01:28:13;;;;;;;0.20;0.20;;;;;;;22.26;100.00;100165.91;5088151;28;20474;-60
2023/08/16 01:30:40;;;;;;;0.10;0.10;;;;;;;22.25;100.00;100162.31;5087715;28;20085;-60
2023/08/16 01:33:09;;;;;;;0.10;0.10;;;;;;;22.28;100.00;100178.34;5073482;28;20032;-60
2023/08/16 01:35:35;;;;;;;0.10;0.10;;;;;;;22.28;100.00;100170.22;5072604;28;20031;-60
2023/08/16 01:38:05;;;;;;;0.10;0.10;;;;;;;22.32;100.00;100170.84;5077614;28;20346;-60
2023/08/16 01:40:38;;;;;;;0.20;0.20;;;;;;;22.32;100.00;100162.72;5065825;28;20484;-60
2023/08/16 01:43:06;;;;;;;0.20;0.20;;;;;;;22.34;100.00;100166.16;5067642;28;20131;-60
2023/08/16 01:45:33;;;;;;;0.10;0.10;;;;;;;22.29;100.00;100182.78;5065611;28;20081;-60
2023/08/16 01:48:00;;;;;;;0.10;0.10;;;;;;;22.30;100.00;100178.22;5080389;28;20080;-60
2023/08/16 01:50:25;;;;;;;0.10;0.10;;;;;;;22.34;100.00;100177.84;5085519;28;20030;-60
2023/08/16 01:52:51;;;;;;;0.10;0.10;;;;;;;22.37;100.00;100172.22;5084027;28;20035;-60
2023/08/16 01:55:17;;;;;;;0.10;0.10;;;;;;;22.39;100.00;100175.66;5090465;28;20024;-60
2023/08/16 01:57:42;;;;;;;0.20;0.20;;;;;;;22.33;100.00;100176.13;5087754;28;20055;-60
2023/08/16 02:00:09;;;;;;;0.10;0.10;;;;;;;22.37;100.00;100171.34;5070188;28;20062;-60
2023/08/16 02:02:37;;;;;;;0.10;0.10;;;;;;;22.42;100.00;100169.13;5077452;28;20027;-60
2023/08/16 02:05:02;;;;;;;0.10;0.10;;;;;;;22.42;100.00;100172.69;5091413;28;20028;-60
2023/08/16 02:07:28;;;;;;;0.10;0.10;;;;;;;22.41;100.00;100178.22;5084391;28;20025;-60
2023/08/16 02:09:53;;;;;;;0.20;0.20;;;;;;;22.37;100.00;100193.91;5071147;28;20041;-60
2023/08/16 02:12:18;;;;;;;0.10;0.10;;;;;;;22.36;100.00;100213.84;5076529;28;20349;-60
2023/08/16 02:14:45;;;;;;;0.20;0.20;;;;;;;22.31;100.00;100248.56;5091338;28;20474;-60
2023/08/16 02:17:10;;;;;;;0.10;0.10;;;;;;;22.24;100.00;100279.81;5089962;28;20036;-60
2023/08/16 02:19:36;;;;;;;0.10;0.10;;;;;;;22.20;100.00;100300.03;5079365;28;20388;-60
2023/08/16 02:22:01;;;;;;;0.10;0.10;;;;;;;22.19;100.00;100311.84;5090176;28;20035;-60
2023/08/16 02:24:27;;;;;;;0.20;0.20;;;;;;;22.15;100.00;100302.22;5073457;28;20032;-59
2023/08/16 02:26:52;;;;;;;0.10;0.10;;;;;;;22.15;100.00;100310.34;5070906;28;20055;-59
2023/08/16 02:29:17;;;;;;;0.10;0.10;;;;;;;22.13;100.00;100315.00;5070949;28;20111;-59
2023/08/16 02:31:43;;;;;;;0.20;0.20;;;;;;;22.09;100.00;100318.94;5072933;28;20024;-59
2023/08/16 02:34:08;;;;;;;0.20;0.20;;;;;;;22.08;100.00;100307.25;5070806;28;20120;-60
2023/08/16 02:36:34;;;;;;;0.10;0.10;;;;;;;22.11;100.00;100316.97;5071289;28;20020;-59
2023/08/16 02:39:00;;;;;;;0.20;0.20;;;;;;;22.10;100.00;100317.97;5076536;28;20023;-59
2023/08/16 02:41:25;;;;;;;0.20;0.20;;;;;;;22.12;100.00;100307.88;5088990;28;20024;-60
2023/08/16 02:43:51;;;;;;;0.20;0.20;;;;;;;22.16;100.00;100304.81;5088446;28;20055;-59
2023/08/16 02:46:16;;;;;;;0.15;0.15;;;;;;;22.17;100.00;100301.09;5089475;28;20027;-60
2023/08/16 02:48:41;;;;;;;0.13;0.13;;;;;;;22.21;100.00;100296.31;5082440;28;20663;-59
2023/08/16 02:51:07;;;;;;;0.20;0.20;;;;;;;22.23;100.00;100304.34;5086866;28;20024;-60
2023/08/16 02:53:32;;;;;;;0.20;0.20;;;;;;;22.25;100.00;100294.25;5069365;28;20028;-60
2023/08/16 02:55:58;;;;;;;0.20;0.20;;;;;;;22.23;100.00;100282.66;5079141;28;20110;-60
2023/08/16 02:58:23;;;;;;;0.10;0.10;;;;;;;22.27;100.00;100276.91;5089941;28;20081;-60
2023/08/16 03:00:50;;;;;;;0.17;0.17;;;;;;;22.31;100.00;100266.66;5090307;28;20137;-60
2023/08/16 03:03:16;;;;;;;0.20;0.20;;;;;;;22.35;100.00;100265.47;5086312;28;20046;-60
2023/08/16 03:05:41;;;;;;;0.20;0.20;;;;;;;22.34;100.00;100270.00;5089484;28;20079;-59
2023/08/16 03:08:07;;;;;;;0.13;0.13;;;;;;;22.30;100.00;100263.13;5084176;28;20060;-60
2023/08/16 03:10:33;;;;;;;0.10;0.10;;;;;;;22.24;100.00;100247.31;5069754;28;20055;-60
2023/08/16 03:12:59;;;;;;;0.20;0.20;;;;;;;22.15;100.00;100253.44;5069811;28;20041;-60
2023/08/16 03:15:24;;;;;;;0.10;0.10;;;;;;;22.06;100.00;100246.88;5072359;28;20029;-60
2023/08/16 03:17:50;;;;;;;0.20;0.20;;;;;;;21.94;100.00;100231.53;5070003;28;20437;-60
2023/08/16 03:20:15;;;;;;;0.10;0.10;;;;;;;21.85;100.00;100234.97;5076631;28;20043;-60
2023/08/16 03:22:41;;;;;;;0.20;0.20;;;;;;;21.84;100.00;100224.25;5089828;28;20023;-60
2023/08/16 03:25:08;;;;;;;0.10;0.10;;;;;;;21.81;100.00;100221.78;5089469;28;20272;-62
2023/08/16 03:27:34;;;;;;;0.20;0.20;;;;;;;21.79;100.00;100219.19;5086535;28;20139;-60
2023/08/16 03:29:59;;;;;;;0.20;0.20;;;;;;;21.83;100.00;100217.09;5089681;28;20558;-59
2023/08/16 03:32:24;;;;;;;0.20;0.20;;;;;;;21.71;100.00;100193.63;5088536;28;20020;-59
2023/08/16 03:34:50;;;;;;;0.20;0.20;;;;;;;21.75;100.00;100165.31;5086920;28;20021;-59
2023/08/16 03:37:15;;;;;;;0.20;0.20;;;;;;;21.74;100.00;100136.53;5069066;28;20085;-59
2023/08/16 03:39:41;;;;;;;0.20;0.20;;;;;;;21.65;100.00;100140.78;5068069;28;20688;-59
2023/08/16 03:42:06;;;;;;;0.20;0.20;;;;;;;21.66;100.00;100138.94;5070646;28;20775;-59
2023/08/16 03:44:32;;;;;;;0.20;0.20;;;;;;;21.68;100.00;100147.81;5067622;28;20028;-60
2023/08/16 03:46:57;;;;;;;0.20;0.20;;;;;;;21.69;100.00;100146.84;5070097;28;20133;-60
2023/08/16 03:49:23;;;;;;;0.20;0.20;;;;;;;21.73;100.00;100145.63;5067463;28;20440;-60
2023/08/16 03:51:48;;;;;;;0.20;0.20;;;;;;;21.74;100.00;100145.53;5084830;28;20024;-60
2023/08/16 03:54:14;;;;;;;0.20;0.20;;;;;;;21.81;100.00;100140.53;5088709;28;20472;-60
2023/08/16 03:56:39;;;;;;;0.20;0.20;;;;;;;21.89;100.00;100143.50;5080344;28;20122;-60
2023/08/16 03:59:05;;;;;;;0.20;0.20;;;;;;;21.92;100.00;100137.84;5068741;28;20375;-59
2023/08/16 04:01:30;;;;;;;0.20;0.20;;;;;;;21.95;100.00;100129.47;5071332;28;20055;-59
2023/08/16 04:03:56;;;;;;;0.20;0.20;;;;;;;21.95;100.00;100124.06;5068953;28;20366;-60
2023/08/16 04:06:21;;;;;;;0.20;0.20;;;;;;;21.96;100.00;100107.69;5076780;28;20020;-60
2023/08/16 04:08:47;;;;;;;0.20;0.20;;;;;;;21.98;100.00;100104.84;5088591;28;20707;-60
2023/08/16 04:11:12;;;;;;;0.17;0.17;;;;;;;21.99;100.00;100101.19;5061355;28;20032;-60
2023/08/16 04:13:38;;;;;;;0.20;0.20;;;;;;;21.96;100.00;100095.97;5070702;28;20399;-60
2023/08/16 04:16:03;;;;;;;0.20;0.20;;;;;;;21.91;100.00;100111.75;5062983;28;20115;-60
2023/08/16 04:18:29;;;;;;;0.20;0.20;;;;;;;21.88;100.00;100120.09;5086142;28;20096;-60
2023/08/16 04:20:56;;;;;;;0.20;0.20;;;;;;;21.90;100.00;100129.84;5072263;28;20039;-60
2023/08/16 04:23:21;;;;;;;0.20;0.20;;;;;;;;;;5068430;28;20036;-60
2023/08/16 04:25:47;;;;;;;0.20;0.20;;;;;;;21.88;100.00;100141.75;5068626;28;20026;-60
2023/08/16 04:28:12;;;;;;;0.20;0.20;;;;;;;21.91;100.00;100139.69;5068055;28;20032;-60
2023/08/16 04:30:38;;;;;;;0.20;0.20;;;;;;;21.89;100.00;100125.38;5061188;28;20579;-60
2023/08/16 04:33:03;;;;;;;0.20;0.20;;;;;;;21.86;100.00;100127.50;5045583;28;20032;-60
2023/08/16 04:35:28;;;;;;;0.20;0.20;;;;;;;21.89;100.00;100141.63;5045903;28;20495;-60
2023/08/16 04:37:54;;;;;;;0.20;0.20;;;;;;;21.86;100.00;100143.75;5047515;28;20036;-60
2023/08/16 04:40:19;;;;;;;0.20;0.20;;;;;;;21.85;100.00;100139.28;5064312;28;20116;-60
2023/08/16 04:42:45;;;;;;;0.20;0.20;;;;;;;21.87;100.00;100140.91;5066124;28;20017;-60
2023/08/16 04:45:10;;;;;;;0.20;0.20;;;;;;;21.88;100.00;100147.19;5062055;28;20077;-60
2023/08/16 04:47:36;;;;;;;0.28;0.28;;;;;;;21.89;100.00;100136.22;5046699;28;20032;-60
2023/08/16 04:50:06;;;;;;;0.20;0.20;;;;;;;21.88;100.00;100147.19;5049492;28;20028;-60
2023/08/16 04:52:32;;;;;;;0.20;0.20;;;;;;;21.87;100.00;100145.47;5068179;28;20036;-60
2023/08/16 04:54:58;;;;;;;0.20;0.20;;;;;;;21.89;100.00;100151.63;5076489;28;20540;-60
2023/08/16 04:57:24;;;;;;;0.20;0.20;;;;;;;21.91;100.00;100149.69;5074625;28;20384;-60
2023/08/16 04:59:50;;;;;;;0.20;0.20;;;;;;;21.90;100.00;100161.47;5078496;28;20051;-60
2023/08/16 05:02:15;;;;;;;0.20;0.20;;;;;;;21.94;100.00;100166.53;5048271;28;20116;-60
2023/08/16 05:04:41;;;;;;;0.20;0.20;;;;;;;21.94;100.00;100181.94;5048781;28;20473;-60
2023/08/16 05:07:06;;;;;;;0.28;0.28;;;;;;;21.93;100.00;100186.47;5065146;28;20032;-60
2023/08/16 05:09:31;;;;;;;0.20;0.20;;;;;;;21.94;100.00;100185.50;5076455;28;20055;-60
2023/08/16 05:11:57;;;;;;;0.25;0.25;;;;;;;21.99;100.00;100193.28;5069121;28;20057;-60
2023/08/16 05:14:23;;;;;;;0.20;0.20;;;;;;;22.00;100.00;100197.72;5067920;28;20029;-60
2023/08/16 05:16:48;;;;;;;0.28;0.28;;;;;;;22.04;100.00;100213.59;5064364;28;20373;-60
2023/08/16 05:19:14;;;;;;;0.30;0.30;;;;;;;22.03;100.00;100222.72;5047872;28;20081;-60
2023/08/16 05:21:39;;;;;;;0.20;0.20;;;;;;;22.00;100.00;100224.81;5063722;28;20077;-60
2023/08/16 05:24:05;;;;;;;0.30;0.30;;;;;;;22.02;100.00;100228.28;5066032;28;20039;-60
2023/08/16 05:26:31;;;;;;;0.30;0.30;;;;;;;22.09;100.00;100226.84;5064978;28;20020;-60
2023/08/16 05:28:58;;;;;;;0.20;0.20;;;;;;;22.18;100.00;100228.81;5065567;28;20031;-60
2023/08/16 05:31:23;;;;;;;0.20;0.20;;;;;;;22.29;100.00;100219.88;5050658;28;20028;-60
2023/08/16 05:33:49;;;;;;;0.20;0.20;;;;;;;22.33;100.00;100216.78;5050778;28;20135;-60
2023/08/16 05:36:14;;;;;;;0.20;0.20;;;;;;;22.38;100.00;100233.56;5064439;28;20032;-60
2023/08/16 05:38:40;;;;;;;0.20;0.20;;;;;;;22.42;100.00;100235.03;5070282;28;20036;-60
2023/08/16 05:41:05;;;;;;;0.20;0.20;;;;;;;22.45;100.00;100229.41;5070627;28;20029;-60
2023/08/16 05:43:31;;;;;;;0.20;0.20;;;;;;;22.42;100.00;100237.75;5070055;28;20085;-60
2023/08/16 05:45:57;;;;;;;0.20;0.20;;;;;;;22.46;100.00;100246.50;5053709;28;20029;-60
2023/08/16 05:48:22;;;;;;;0.20;0.20;;;;;;;22.48;100.00;100248.13;5051350;28;20025;-60
2023/08/16 05:50:48;;;;;;;0.20;0.20;;;;;;;22.50;100.00;100254.31;5060295;28;20078;-60
2023/08/16 05:53:13;;;;;;;0.20;0.20;;;;;;;22.50;100.00;100254.31;5069023;28;20477;-60
2023/08/16 05:55:39;;;;;;;0.20;0.20;;;;;;;22.58;100.00;100260.03;5064048;28;20025;-60
2023/08/16 05:58:04;;;;;;;0.20;0.20;;;;;;;22.63;100.00;100260.53;5071246;28;20024;-60
2023/08/16 06:00:30;;;;;;;0.20;0.20;;;;;;;22.67;100.00;100262.00;5053818;28;20116;-60
2023/08/16 06:02:55;;;;;;;0.20;0.20;;;;;;;22.71;100.00;100260.81;5051348;28;20393;-60
2023/08/16 06:05:21;;;;;;;0.20;0.20;;;;;;;22.76;100.00;100260.44;5053289;28;20033;-60
2023/08/16 06:07:46;;;;;;;0.20;0.20;;;;;;;22.84;100.00;100269.69;5052617;28;20032;-60
2023/08/16 06:10:12;;;;;;;0.20;0.20;;;;;;;22.92;100.00;100269.06;5065451;28;20048;-60
2023/08/16 06:12:37;;;;;;;0.20;0.20;;;;;;;23.06;100.00;100264.28;5073550;28;20036;-60
2023/08/16 06:15:04;;;;;;;0.20;0.20;;;;;;;23.21;100.00;100256.78;5073219;28;20116;-60
2023/08/16 06:17:29;;;;;;;0.20;0.20;;;;;;;23.29;100.00;100268.75;5082921;28;20020;-60
2023/08/16 06:19:55;;;;;;;0.20;0.20;;;;;;;23.32;100.00;100265.81;5082920;28;20093;-60
2023/08/16 06:22:21;;;;;;;0.30;0.30;;;;;;;23.49;100.00;100271.72;5090205;28;20115;-60
2023/08/16 06:24:47;;;;;;;0.20;0.20;;;;;;;23.69;100.00;100262.81;5090301;28;20103;-60
2023/08/16 06:27:12;;;;;;;0.20;0.20;;;;;;;23.89;100.00;100267.44;5090196;28;20028;-60
2023/08/16 06:29:38;;;;;;;0.28;0.28;;;;;;;23.89;100.00;100267.44;5086114;28;20035;-60
2023/08/16 06:32:04;;;;;;;0.20;0.20;;;;;;;24.00;100.00;100251.13;5072498;28;20026;-60
2023/08/16 06:34:29;;;;;;;0.20;0.20;;;;;;;24.17;100.00;100275.03;5069154;28;20027;-60
2023/08/16 06:36:55;;;;;;;0.20;0.20;;;;;;;24.26;100.00;100269.69;5069933;28;20035;-60
2023/08/16 06:39:21;;;;;;;0.20;0.20;;;;;;;24.24;100.00;100268.97;5074697;28;20849;-60
2023/08/16 06:41:47;;;;;;;0.20;0.20;;;;;;;24.29;100.00;100268.56;5070683;28;20058;-60
2023/08/16 06:44:12;;;;;;;0.20;0.20;;;;;;;24.43;100.00;100258.22;5070658;28;20108;-60
2023/08/16 06:46:38;;;;;;;0.20;0.20;;;;;;;24.58;100.00;100258.75;5078345;28;20031;-60
2023/08/16 06:49:03;;;;;;;0.20;0.20;;;;;;;24.85;100.00;100258.25;5086165;28;20032;-60
2023/08/16 06:51:29;;;;;;;0.20;0.20;;;;;;;24.92;100.00;100259.44;5089839;28;20024;-61
2023/08/16 06:53:54;;;;;;;0.20;0.20;;;;;;;25.06;100.00;100257.22;5090350;28;20384;-60
2023/08/16 06:56:19;;;;;;;0.20;0.20;;;;;;;25.07;100.00;100248.09;5089588;28;20382;-60
2023/08/16 06:58:45;;;;;;;0.20;0.20;;;;;;;25.21;100.00;100255.00;5078351;28;20499;-61
2023/08/16 07:01:11;;;;;;;0.20;0.20;;;;;;;25.29;100.00;100256.06;5070221;28;20032;-60
2023/08/16 07:03:37;;;;;;;0.20;0.20;;;;;;;25.32;100.00;100258.50;5071205;28;20537;-61
2023/08/16 07:06:02;;;;;;;0.15;0.15;;;;;;;25.49;100.00;100260.59;5071285;28;20020;-60
2023/08/16 07:08:28;;;;;;;0.20;0.20;;;;;;;25.80;100.00;100261.41;5070108;28;20036;-60
2023/08/16 07:10:54;;;;;;;0.20;0.20;;;;;;;26.26;99.41;100263.53;5081041;28;20135;-60
2023/08/16 07:13:19;;;;;;;0.20;0.20;;;;;;;26.75;92.59;100266.09;5089631;28;20107;-61
2023/08/16 07:15:45;;;;;;;0.20;0.20;;;;;;;26.85;91.33;100266.94;5089219;28;20510;-60
2023/08/16 07:18:10;;;;;;;0.20;0.20;;;;;;;26.71;89.89;100265.53;5081888;28;20036;-60
2023/08/16 07:20:36;;;;;;;0.20;0.20;;;;;;;26.66;91.00;100261.50;5077530;28;20043;-61
2023/08/16 07:23:02;;;;;;;0.10;0.10;;;;;;;26.56;90.16;100263.34;5088826;28;20028;-61
2023/08/16 07:25:28;;;;;;;0.10;0.10;;;;;;;26.99;90.71;100269.19;5086189;28;20032;-61
2023/08/16 07:27:54;;;;;;;0.10;0.10;;;;;;;27.41;87.61;100253.28;5070207;28;20040;-61
2023/08/16 07:30:19;;;;;;;0.10;0.10;;;;;;;27.70;84.79;100265.78;5084417;28;20024;-61
2023/08/16 07:32:45;;;;;;;0.10;0.10;;;;;;;27.97;83.76;100267.66;5085163;28;20036;-61
2023/08/16 07:35:10;;;;;;;0.10;0.10;;;;;;;28.27;80.30;100265.41;5089309;28;20051;-61
2023/08/16 07:37:36;;;;;;;0.10;0.10;;;;;;;28.50;80.32;100264.97;5085984;28;20059;-61
2023/08/16 07:40:04;;;;;;;0.10;0.10;;;;;;;28.60;78.14;100261.09;5089800;28;20040;-61
2023/08/16 07:42:30;;;;;;;0.10;0.10;;;;;;;28.90;78.04;100262.53;5083612;28;20111;-61
2023/08/16 07:44:57;;;;;;;0.10;0.10;;;;;;;28.91;77.71;100262.41;5068554;28;20107;-61
2023/08/16 07:47:22;;;;;;;0.10;0.10;;;;;;;29.11;75.09;100271.31;5074362;28;20024;-61
2023/08/16 07:49:48;;;;;;;0.10;0.10;;;;;;;29.20;74.34;100273.06;5088477;28;20071;-61
2023/08/16 07:52:13;;;;;;;0.10;0.10;;;;;;;29.84;75.40;100262.41;5088348;28;20028;-61
2023/08/16 07:54:39;;;;;;;0.10;0.10;;;;;;;30.22;73.35;100269.19;5088541;28;20051;-61
2023/08/16 07:57:04;;;;;;;0.10;0.10;;;;;;;30.60;71.92;100271.34;5083465;28;20439;-61
2023/08/16 07:59:30;;;;;;;0.10;0.10;;;;;;;30.69;68.23;100268.41;5082153;28;20024;-61
2023/08/16 08:01:56;;;;;;;0.10;0.10;;;;;;;30.46;68.53;100272.88;5083570;28;20104;-61
2023/08/16 08:04:22;;;;;;;0.10;0.10;;;;;;;30.34;70.02;100267.88;5088176;28;20027;-61
2023/08/16 08:06:48;;;;;;;0.10;0.10;;;;;;;30.70;68.25;100267.41;5088021;28;20030;-61
2023/08/16 08:09:13;;;;;;;0.10;0.10;;;;;;;31.16;68.16;100273.19;5086597;28;20843;-62
2023/08/16 08:11:39;;;;;;;0.10;0.10;;;;;;;31.59;65.20;100275.50;5070499;28;20470;-62
2023/08/16 08:14:05;;;;;;;0.10;0.10;;;;;;;31.33;64.70;100277.66;5068722;28;20029;-62
2023/08/16 08:16:31;;;;;;;0.10;0.10;;;;;;;30.89;65.94;100275.31;5077033;28;20543;-61
2023/08/16 08:18:56;;;;;;;0.10;0.10;;;;;;;30.48;67.79;100276.31;5067483;28;20029;-61
2023/08/16 08:21:22;;;;;;;0.10;0.10;;;;;;;30.01;70.24;100280.66;5078283;28;20490;-61
2023/08/16 08:23:47;;;;;;;0.10;0.10;;;;;;;29.46;72.56;100279.38;5071431;28;20054;-61
2023/08/16 08:26:13;;;;;;;0.10;0.10;;;;;;;29.42;73.83;100286.22;5072817;28;20064;-62
2023/08/16 08:28:38;;;;;;;0.00;0.00;;;;;;;29.26;73.31;100281.47;5072576;28;20035;-62
2023/08/16 08:31:04;;;;;;;0.00;0.00;;;;;;;29.13;73.49;100283.81;5089722;28;20031;-62
2023/08/16 08:33:30;;;;;;;0.08;0.08;;;;;;;29.03;75.24;100283.00;5092750;28;20032;-62
2023/08/16 08:35:57;;;;;;;0.00;0.00;;;;;;;29.19;75.05;100282.31;5095433;28;20032;-62
2023/08/16 08:38:23;;;;;;;0.08;0.08;;;;;;;29.61;73.72;100274.97;5090158;28;20047;-62
2023/08/16 08:40:59;;;;;;;0.00;0.00;;;;;;;29.82;71.78;100272.69;5095317;28;20028;-63
2023/08/16 08:43:34;;;;;;;0.10;0.10;;;;;;;29.89;72.27;100281.13;5094211;28;20887;-63
2023/08/16 08:46:00;;;;;;;0.03;0.03;;;;;;;29.69;71.22;100277.78;5091244;28;20028;-63
2023/08/16 08:48:27;;;;;;;0.00;0.00;;;;;;;29.57;72.12;100276.34;5076416;28;20561;-63
2023/08/16 08:50:56;;;;;;;0.00;0.00;;;;;;;29.30;73.48;100282.91;5095884;28;20024;-63
2023/08/16 08:53:26;;;;;;;0.08;0.08;;;;;;;29.13;74.75;100285.66;5094268;28;20028;-63
2023/08/16 08:55:53;;;;;;;0.00;0.00;;;;;;;29.01;76.02;100289.69;5080815;28;20039;-63
2023/08/16 08:58:19;;;;;;;0.00;0.00;;;;;;;29.00;77.45;100296.16;5071701;28;20035;-63
2023/08/16 09:00:46;;;;;;;0.00;0.00;;;;;;;29.15;77.11;100291.84;5072839;28;20033;-63
2023/08/16 09:03:13;;;;;;;0.00;0.00;;;;;;;29.45;76.63;100294.09;5072306;28;20029;-63
2023/08/16 09:05:44;;;;;;;0.00;0.00;;;;;;;29.55;75.38;100286.63;5094074;28;20043;-63
2023/08/16 09:08:13;;;;;;;0.00;0.00;;;;;;;29.62;76.00;100293.16;5095749;28;20016;-63
2023/08/16 09:10:39;;;;;;;0.00;0.00;;;;;;;29.56;73.01;100286.44;5086694;28;20044;-63
2023/08/16 09:13:06;;;;;;;0.00;0.00;;;;;;;29.97;73.56;100287.50;5074821;28;20027;-63
2023/08/16 09:15:32;;;;;;;0.00;0.00;;;;;;;30.20;70.18;100294.06;5075135;28;20032;-63
2023/08/16 09:18:07;;;;;;;0.00;0.00;;;;;;;30.69;70.09;100298.63;5077763;28;20032;-63
2023/08/16 09:20:33;;;;;;;0.00;0.00;;;;;;;30.92;69.28;100298.84;5087353;28;20028;-64
2023/08/16 09:22:58;;;;;;;0.00;0.00;;;;;;;31.07;67.51;100296.25;5096723;28;20035;-63
2023/08/16 09:25:29;;;;;;;0.00;0.00;;;;;;;31.04;66.82;100291.09;5094821;28;20114;-64
2023/08/16 09:27:54;;;;;;;0.00;0.00;;;;;;;30.83;66.35;100287.00;5084987;28;20453;-63
2023/08/16 09:30:20;;;;;;;0.00;0.00;;;;;;;31.05;66.40;100295.56;5082341;28;20024;-64
2023/08/16 09:32:46;;;;;;;0.00;0.00;;;;;;;31.13;67.44;100287.28;5088787;28;20490;-64
2023/08/16 09:35:16;;;;;;;0.03;0.03;;;;;;;31.39;66.54;100287.94;5085077;28;20051;-64
2023/08/16 09:37:44;;;;;;;0.00;0.00;;;;;;;31.31;66.96;100285.19;5075772;28;20050;-64
2023/08/16 09:40:15;;;;;;;0.00;0.00;;;;;;;31.82;65.42;100284.69;5084067;28;20089;-64
2023/08/16 09:42:41;;;;;;;0.00;0.00;;;;;;;32.38;63.59;100280.78;5100974;28;20031;-64
2023/08/16 09:45:06;;;;;;;0.00;0.00;;;;;;;32.55;64.23;100280.53;5104924;28;20024;-64
2023/08/16 09:47:32;;;;;;;0.00;0.00;;;;;;;32.83;63.23;100272.53;5086086;28;20151;-64
2023/08/16 09:49:59;;;;;;;0.00;0.00;;;;;;;32.97;61.04;100272.63;5082175;28;20547;-64
2023/08/16 09:52:24;;;;;;;0.00;0.00;;;;;;;33.42;60.18;100271.66;5098610;28;20032;-65
2023/08/16 09:54:51;;;;;;;0.00;0.00;;;;;;;33.52;56.33;100271.38;5093505;28;20031;-66
2023/08/16 09:57:17;;;;;;;0.00;0.00;;;;;;;33.64;55.77;100258.81;5057483;28;20027;-65
2023/08/16 09:59:43;;;;;;;0.00;0.00;;;;;;;33.67;58.08;100258.41;5077515;28;20020;-64
2023/08/16 10:02:13;;;;;;;0.00;0.00;;;;;;;33.82;57.57;100260.13;5084437;28;20032;-64
2023/08/16 10:04:39;;;;;;;0.00;0.00;;;;;;;34.24;56.63;100251.06;5075129;28;20033;-65
2023/08/16 10:07:08;;;;;;;0.00;0.00;;;;;;;34.33;56.46;100264.56;5076096;28;20036;-63
2023/08/16 10:09:34;;;;;;;0.00;0.00;;;;;;;34.05;57.12;100251.72;5072460;28;20056;-65
2023/08/16 10:12:03;;;;;;;0.00;0.00;;;;;;;34.12;55.69;100249.91;5075417;28;20094;-65
2023/08/16 10:14:30;;;;;;;0.00;0.00;;;;;;;33.79;57.50;100246.69;5078042;28;20060;-64
2023/08/16 10:17:01;;;;;;;0.00;0.00;;;;;;;33.44;60.32;100249.38;5090779;28;20050;-64
2023/08/16 10:19:32;;;;;;;0.00;0.00;;;;;;;33.49;59.01;100246.91;5073694;28;20020;-64
2023/08/16 10:21:59;;;;;;;0.00;0.00;;;;;;;33.39;57.91;100244.41;5081734;28;20028;-65
2023/08/16 10:24:27;;;;;;;0.00;0.00;;;;;;;33.48;60.43;100239.69;5100120;28;20028;-65
2023/08/16 10:26:56;;;;;;;0.00;0.00;;;;;;;33.86;60.35;100235.72;5095513;28;20051;-65
2023/08/16 10:29:23;;;;;;;0.00;0.00;;;;;;;34.16;56.85;100231.88;5097803;28;20075;-64
2023/08/16 10:31:51;;;;;;;0.00;0.00;;;;;;;34.54;54.40;100231.47;5085126;28;20069;-65
2023/08/16 10:34:20;;;;;;;0.00;0.00;;;;;;;34.68;55.90;100232.41;5075137;28;20024;-67
2023/08/16 10:36:46;;;;;;;0.00;0.00;;;;;;;34.88;55.68;100227.91;5071460;28;20028;-65
2023/08/16 10:39:24;;;;;;;0.00;0.00;;;;;;;35.20;53.48;100223.72;5070877;28;20033;-65
2023/08/16 10:41:51;;;;;;;0.00;0.00;;;;;;;35.18;53.48;100215.63;5076709;28;20043;-66
2023/08/16 10:44:23;;;;;;;0.00;0.00;;;;;;;35.41;52.21;100218.97;5090140;28;20028;-64
2023/08/16 10:46:50;;;;;;;0.00;0.00;;;;;;;35.46;53.25;100216.47;5070879;28;20688;-65
2023/08/16 10:49:16;;;;;;;0.00;0.00;;;;;;;35.70;52.64;100221.47;5076450;28;20496;-65
2023/08/16 10:51:43;;;;;;;0.00;0.00;;;;;;;35.76;52.86;100222.56;5087164;28;20032;-66
2023/08/16 10:54:08;;;;;;;0.00;0.00;;;;;;;35.65;52.62;100215.69;5076570;28;20098;-65
2023/08/16 10:56:43;;;;;;;0.00;0.00;;;;;;;35.71;53.86;100206.56;5090970;28;20151;-66
2023/08/16 10:59:09;;;;;;;0.00;0.00;;;;;;;35.72;52.20;100204.63;5071820;28;20538;-66
2023/08/16 11:01:34;;;;;;;0.00;0.00;;;;;;;35.77;53.76;100208.50;5087506;28;20023;-66
2023/08/16 11:04:02;;;;;;;0.00;0.00;;;;;;;35.82;54.62;100207.03;5088649;28;20027;-67
2023/08/16 11:06:28;;;;;;;0.00;0.00;;;;;;;35.44;55.52;100199.19;5086893;28;20064;-65
2023/08/16 11:08:54;;;;;;;0.00;0.00;;;;;;;35.51;51.43;100191.78;5068466;28;20600;-66
2023/08/16 11:11:21;;;;;;;0.00;0.00;;;;;;;35.63;53.75;100190.16;5068226;28;20148;-67
2023/08/16 11:13:46;;;;;;;0.00;0.00;;;;;;;35.79;54.45;100200.84;5069863;28;20032;-66
2023/08/16 11:16:12;;;;;;;0.00;0.00;;;;;;;36.23;53.33;100196.75;5068768;28;20020;-66
2023/08/16 11:18:40;;;;;;;0.00;0.00;;;;;;;36.45;52.62;100189.97;5080367;28;20540;-66